MSC Orchestra — 3EJF3 — position and weather

sailwx.info

Track history (hours):
 
Tides and Currents Weather Stations Pressure Air Temp Water Temp Dewpoint Dewpoint Depression Visibility Wind Speed Wind Dir Waves Ship Positions

MSC Orchestra

Last reported at 2017-Jun-23 05:59 UTC. Time now 2017-Jun-23 17:10 UTC.
Position N 42°06' E 011°47'.

Length 294 m; draft 7.7 m.

Type: Ship. MMSI: 372497000.

Date/timePositionNaut miles runAvg speedWind from/ knotsBaromVisibWave heightAir tempDewpointWater temp
2017-Jun-23 05:59N 42°06' E 011°47'0 0.0
2017-Jun-23 05:29N 42°06' E 011°47'2 1.9
2017-Jun-23 04:34N 42°07' E 011°45'1 8.1
2017-Jun-23 04:28N 42°06' E 011°44'712.6
2017-Jun-23 03:55N 42°03' E 011°36'513.1
2017-Jun-23 03:30N 42°01' E 011°29'713.4
2017-Jun-23 03:00N 41°58' E 011°21'714.1
2017-Jun-23 02:30N 41°55' E 011°12'714.1
2017-Jun-23 02:00N 41°53' E 011°03'714.1
2017-Jun-23 01:30N 41°50' E 010°54'714.5
2017-Jun-23 01:00N 41°47' E 010°45'714.8
2017-Jun-23 00:30N 41°45' E 010°36'1214.9
2017-Jun-22 23:43N 41°40' E 010°22'315.0
2017-Jun-22 23:30N 41°39' E 010°18'1115.0
2017-Jun-22 22:46N 41°35' E 010°04'414.7
2017-Jun-22 22:30N 41°33' E 009°59'814.7
2017-Jun-22 21:59N 41°30' E 009°50'714.9
2017-Jun-22 21:30N 41°28' E 009°41'714.6
2017-Jun-22 21:00N 41°25' E 009°32'915.8
2017-Jun-22 20:27N 41°21' E 009°21'2115.0
2017-Jun-22 19:02N 41°24' E 008°53'117.3
2017-Jun-22 19:00N 41°24' E 008°53'54 4.3
2017-Jun-22 06:19N 41°42' E 007°44'1020.3
2017-Jun-22 05:50N 41°41' E 007°31'2220.4
2017-Jun-22 04:45N 41°39' E 007°02'520.5
2017-Jun-22 04:30N 41°38' E 006°55'1020.5
2017-Jun-22 04:00N 41°37' E 006°42'1120.4
2017-Jun-22 03:29N 41°36' E 006°27'1020.4
2017-Jun-22 03:00N 41°35' E 006°14'1019.7
2017-Jun-22 02:30N 41°34' E 006°01'918.4
2017-Jun-22 02:00N 41°34' E 005°49'1118.3
2017-Jun-22 01:26N 41°32' E 005°35'818.1
2017-Jun-22 00:59N 41°31' E 005°24'1918.2
2017-Jun-21 23:57N 41°29' E 004°59'3018.2
2017-Jun-21 22:18N 41°26' E 004°19'2618.1
2017-Jun-21 20:53N 41°24' E 003°45'718.2
2017-Jun-21 20:29N 41°23' E 003°36'917.9
2017-Jun-21 20:00N 41°22' E 003°24'917.7
2017-Jun-21 19:30N 41°21' E 003°13'1417.6
2017-Jun-21 18:43N 41°20' E 002°54'518.1
2017-Jun-21 18:26N 41°19' E 002°48'818.2
2017-Jun-21 18:00N 41°18' E 002°37'918.0
2017-Jun-21 17:30N 41°16' E 002°25'918.0
2017-Jun-21 17:00N 41°16' E 002°14'5 9.9
2017-Jun-21 16:30N 41°21' E 002°10'1 1.2
2017-Jun-21 15:25N 41°22' E 002°11'0 0.0
2017-Jun-21 13:42N 41°22' E 002°11'0 0.0
2017-Jun-21 13:30N 41°22' E 002°11'0 0.0
2017-Jun-21 12:18N 41°22' E 002°11'0 0.0
2017-Jun-21 12:00N 41°22' E 002°11'0 0.0
2017-Jun-21 11:29N 41°22' E 002°11'0 0.0
2017-Jun-21 07:46N 41°22' E 002°11'0 0.0
2017-Jun-21 07:28N 41°22' E 002°11'0 0.3
2017-Jun-21 06:48N 41°22' E 002°11'3 4.3
2017-Jun-21 06:13N 41°19' E 002°10'1915.7
2017-Jun-21 04:59N 40°60' E 002°11'918.2
2017-Jun-21 04:29N 40°51' E 002°12'918.1
2017-Jun-21 03:59N 40°42' E 002°12'917.9
2017-Jun-21 03:28N 40°32' E 002°12'917.9
2017-Jun-21 03:00N 40°24' E 002°12'917.8
2017-Jun-21 02:30N 40°15' E 002°13'918.0
2017-Jun-21 02:00N 40°06' E 002°13'918.2
2017-Jun-21 01:30N 39°57' E 002°13'1018.5
2017-Jun-21 00:59N 39°48' E 002°14'919.0
2017-Jun-21 00:30N 39°38' E 002°15'917.8
2017-Jun-20 23:59N 39°30' E 002°20'917.9
2017-Jun-20 23:30N 39°26' E 002°30'816.4
2017-Jun-20 23:00N 39°31' E 002°38'2 4.6
2017-Jun-20 22:30N 39°33' E 002°38'0 0.2
2017-Jun-20 21:58N 39°33' E 002°38'0 0.0
2017-Jun-20 21:28N 39°33' E 002°38'0 0.0
2017-Jun-20 21:00N 39°33' E 002°38'0 0.0
2017-Jun-20 20:30N 39°33' E 002°38'0 0.0
2017-Jun-20 20:00N 39°33' E 002°38'0 0.0
2017-Jun-20 19:30N 39°33' E 002°38'0 0.0
2017-Jun-20 19:00N 39°33' E 002°38'0 0.0
2017-Jun-20 18:29N 39°33' E 002°38'0 0.0
2017-Jun-20 17:59N 39°33' E 002°38'0 0.0
2017-Jun-20 17:29N 39°33' E 002°38'0 0.0
2017-Jun-20 16:53N 39°33' E 002°38'0 0.0
2017-Jun-20 16:25N 39°33' E 002°38'0 0.0
2017-Jun-20 15:58N 39°33' E 002°38'0 0.0
2017-Jun-20 15:28N 39°33' E 002°38'0 0.0
2017-Jun-20 14:58N 39°33' E 002°38'0 0.0
2017-Jun-20 13:57N 39°33' E 002°38'0 0.0
2017-Jun-20 13:27N 39°33' E 002°38'0 0.0
2017-Jun-20 13:00N 39°33' E 002°38'0 0.0
2017-Jun-20 12:30N 39°33' E 002°38'0 0.0
2017-Jun-20 12:00N 39°33' E 002°38'0 0.0
2017-Jun-20 11:29N 39°33' E 002°38'0 0.0
2017-Jun-20 10:57N 39°33' E 002°38'1 2.6
2017-Jun-20 10:30N 39°32' E 002°39'611.1
2017-Jun-20 10:00N 39°28' E 002°35'611.8
2017-Jun-20 09:30N 39°26' E 002°28'714.1
2017-Jun-20 09:00N 39°30' E 002°20'713.5
2017-Jun-20 08:28N 39°37' E 002°16'1016.2
2017-Jun-20 07:53N 39°44' E 002°24'616.0
2017-Jun-20 07:30N 39°48' E 002°30'816.4
2017-Jun-20 07:00N 39°53' E 002°38'816.5
2017-Jun-20 06:30N 39°59' E 002°46'816.5
2017-Jun-20 06:00N 40°05' E 002°53'816.9
2017-Jun-20 05:30N 40°11' E 003°01'917.8
2017-Jun-20 05:00N 40°17' E 003°09'917.6
2017-Jun-20 04:29N 40°24' E 003°18'3317.4
2017-Jun-20 02:37N 40°47' E 003°48'3617.6
2017-Jun-20 00:35N 41°12' E 004°22'317.7
2017-Jun-20 00:25N 41°14' E 004°25'3117.3
2017-Jun-19 22:38N 41°35' E 004°55'2417.4
2017-Jun-19 21:14N 41°53' E 005°18'1017.5
2017-Jun-19 20:38N 41°60' E 005°28'317.4
2017-Jun-19 20:29N 42°02' E 005°30'1017.6
2017-Jun-19 19:55N 42°09' E 005°40'1717.6
2017-Jun-19 18:57N 42°20' E 005°56'817.4
2017-Jun-19 18:30N 42°26' E 006°04'917.5
2017-Jun-19 18:00N 42°32' E 006°12'917.6
2017-Jun-19 17:30N 42°38' E 006°21'917.9
2017-Jun-19 17:00N 42°44' E 006°30'918.5
2017-Jun-19 16:30N 42°51' E 006°39'918.8
2017-Jun-19 16:00N 42°57' E 006°48'918.8
2017-Jun-19 15:30N 43°06' E 006°52'918.7
2017-Jun-19 15:00N 43°15' E 006°55'1716.9
2017-Jun-19 14:00N 43°32' E 007°01'0 0.6
2017-Jun-19 13:22N 43°32' E 007°01'0 0.0
2017-Jun-19 12:58N 43°32' E 007°01'0 0.0
2017-Jun-19 12:25N 43°32' E 007°01'0 0.0
2017-Jun-19 12:00N 43°32' E 007°01'0 0.0
2017-Jun-19 11:30N 43°32' E 007°01'0 0.0
2017-Jun-19 11:00N 43°32' E 007°01'0 0.0
2017-Jun-19 10:27N 43°32' E 007°01'0 0.0
2017-Jun-19 10:00N 43°32' E 007°01'0 0.0
2017-Jun-19 09:29N 43°32' E 007°01'0 0.0
2017-Jun-19 08:58N 43°32' E 007°01'0 0.0
2017-Jun-19 08:27N 43°32' E 007°01'0 0.0
2017-Jun-19 08:00N 43°32' E 007°01'0 0.0
2017-Jun-19 07:30N 43°32' E 007°01'0 0.1
2017-Jun-19 07:00N 43°32' E 007°01'0 0.0
2017-Jun-19 06:30N 43°32' E 007°01'0 0.0
2017-Jun-19 06:00N 43°32' E 007°01'0 0.0
2017-Jun-19 05:30N 43°32' E 007°01'0 0.0
2017-Jun-19 05:00N 43°32' E 007°01'2 3.2
2017-Jun-19 04:30N 43°31' E 007°00'4 8.2
2017-Jun-19 04:00N 43°27' E 007°04'4 8.6
2017-Jun-19 03:30N 43°28' E 007°09'5 8.9
2017-Jun-19 03:00N 43°29' E 007°15'4 8.6
2017-Jun-19 02:30N 43°30' E 007°21'4 8.4
2017-Jun-19 02:00N 43°31' E 007°27'4 8.4
2017-Jun-19 01:30N 43°32' E 007°33'4 8.5
2017-Jun-19 01:00N 43°33' E 007°38'4 8.5
2017-Jun-19 00:30N 43°34' E 007°44'4 8.4
2017-Jun-19 00:00N 43°35' E 007°49'5 8.8
2017-Jun-18 23:28N 43°36' E 007°56'4 9.1
2017-Jun-18 23:00N 43°37' E 008°01'5 9.0
2017-Jun-18 22:30N 43°39' E 008°07'5 9.0
2017-Jun-18 22:00N 43°41' E 008°13'4 9.0
2017-Jun-18 21:30N 43°43' E 008°18'5 9.1
2017-Jun-18 21:00N 43°47' E 008°22'5 9.2
2017-Jun-18 20:30N 43°51' E 008°26'5 9.1
2017-Jun-18 20:00N 43°54' E 008°30'5 9.4
2017-Jun-18 19:30N 43°58' E 008°34'5 9.3
2017-Jun-18 19:00N 44°01' E 008°38'5 9.1
2017-Jun-18 18:30N 44°05' E 008°42'5 9.7
2017-Jun-18 18:00N 44°09' E 008°46'5 9.6
2017-Jun-18 17:30N 44°13' E 008°50'5 9.5
2017-Jun-18 17:00N 44°16' E 008°55'5 9.5
2017-Jun-18 16:30N 44°20' E 008°57'4 8.5
2017-Jun-18 16:00N 44°24' E 008°55'0 0.5
2017-Jun-18 15:27N 44°25' E 008°55'0 0.0
2017-Jun-18 14:48N 44°25' E 008°55'0 0.0
2017-Jun-18 14:00N 44°25' E 008°55'0 0.0
2017-Jun-18 13:29N 44°25' E 008°55'0 0.0
2017-Jun-18 12:59N 44°25' E 008°55'0 0.0
2017-Jun-18 12:29N 44°25' E 008°55'0 0.0
2017-Jun-18 11:59N 44°25' E 008°55'0 0.0
2017-Jun-18 11:28N 44°25' E 008°55'0 0.0
2017-Jun-18 10:58N 44°25' E 008°55'0 0.0
2017-Jun-18 10:25N 44°25' E 008°55'0 0.0
2017-Jun-18 09:52N 44°25' E 008°55'0 0.0
2017-Jun-18 09:28N 44°25' E 008°55'0 0.0
2017-Jun-18 09:00N 44°25' E 008°55'0 0.0
2017-Jun-18 08:27N 44°25' E 008°55'0 0.0
2017-Jun-18 07:54N 44°25' E 008°55'0 0.0
2017-Jun-18 07:30N 44°25' E 008°55'0 0.0
2017-Jun-18 06:57N 44°25' E 008°55'0 0.0
2017-Jun-18 06:29N 44°25' E 008°55'0 0.0
2017-Jun-18 05:56N 44°25' E 008°55'0 0.0
2017-Jun-18 05:26N 44°25' E 008°55'0 0.8
2017-Jun-18 05:00N 44°24' E 008°55'1 3.0
2017-Jun-18 04:30N 44°23' E 008°57'3 7.0
2017-Jun-18 04:00N 44°20' E 008°59'5 9.1
2017-Jun-18 03:30N 44°16' E 008°59'4 7.5
2017-Jun-18 03:00N 44°12' E 008°60'4 7.6
2017-Jun-18 02:30N 44°08' E 008°60'3 6.9
2017-Jun-18 02:00N 44°05' E 009°00'4 7.2
2017-Jun-18 01:30N 44°01' E 009°01'3 6.9
2017-Jun-18 01:00N 43°58' E 009°01'3 6.8
2017-Jun-18 00:30N 43°54' E 009°01'3 6.7
2017-Jun-18 00:00N 43°51' E 009°01'3 6.7
2017-Jun-17 23:30N 43°48' E 009°02'3 6.5
2017-Jun-17 23:00N 43°46' E 009°06'3 6.9
2017-Jun-17 22:30N 43°47' E 009°11'4 7.1
2017-Jun-17 22:00N 43°49' E 009°15'4 7.0
2017-Jun-17 21:30N 43°50' E 009°20'3 6.9
2017-Jun-17 21:00N 43°51' E 009°24'3 6.8
2017-Jun-17 20:30N 43°53' E 009°29'4 7.0
2017-Jun-17 20:00N 43°54' E 009°33'4 7.1
2017-Jun-17 19:30N 43°55' E 009°38'4 7.2
2017-Jun-17 19:00N 43°57' E 009°42'4 7.3
2017-Jun-17 18:30N 43°58' E 009°47'4 7.3
2017-Jun-17 18:00N 43°60' E 009°52'4 8.3
2017-Jun-17 17:30N 44°04' E 009°51'3 4.7
2017-Jun-17 16:58N 44°06' E 009°50'0 0.0
2017-Jun-17 16:28N 44°06' E 009°50'0 0.0
2017-Jun-17 15:58N 44°06' E 009°50'0 0.0
2017-Jun-17 15:24N 44°06' E 009°50'0 0.0
2017-Jun-17 15:00N 44°06' E 009°50'0 0.0
2017-Jun-17 14:30N 44°06' E 009°50'0 0.0
2017-Jun-17 13:30N 44°06' E 009°50'0 0.0
2017-Jun-17 12:59N 44°06' E 009°50'0 0.0
2017-Jun-17 12:29N 44°06' E 009°50'0 0.0
2017-Jun-17 11:56N 44°06' E 009°50'0 0.0
2017-Jun-17 11:26N 44°06' E 009°50'0 0.0
2017-Jun-17 10:59N 44°06' E 009°50'0 0.0
2017-Jun-17 10:28N 44°06' E 009°50'0 0.0
2017-Jun-17 09:58N 44°06' E 009°50'0 0.0
2017-Jun-17 09:25N 44°06' E 009°50'0 0.0
2017-Jun-17 08:58N 44°06' E 009°50'0 0.0
2017-Jun-17 08:31N 44°06' E 009°50'0 0.0
2017-Jun-17 08:00N 44°06' E 009°50'0 0.0
2017-Jun-17 07:30N 44°06' E 009°50'0 0.0
2017-Jun-17 07:00N 44°06' E 009°50'0 0.0
2017-Jun-17 06:30N 44°06' E 009°50'0 0.0
2017-Jun-17 05:59N 44°06' E 009°50'0 0.0
2017-Jun-17 05:26N 44°06' E 009°50'0 0.0
2017-Jun-17 04:59N 44°06' E 009°50'0 1.0
2017-Jun-17 04:31N 44°06' E 009°51'3 6.4
2017-Jun-17 04:00N 44°03' E 009°52'612.0
2017-Jun-17 03:30N 43°58' E 009°57'714.7
2017-Jun-17 03:00N 43°52' E 009°52'714.5
2017-Jun-17 02:30N 43°45' E 009°47'815.3
2017-Jun-17 02:00N 43°39' E 009°42'816.1
2017-Jun-17 01:30N 43°31' E 009°39'917.4
2017-Jun-17 01:00N 43°23' E 009°45'917.2
2017-Jun-17 00:30N 43°16' E 009°51'917.2
2017-Jun-17 00:00N 43°08' E 009°57'917.2
2017-Jun-16 23:30N 43°00' E 010°01'917.7
2017-Jun-16 23:00N 42°52' E 010°01'917.4
2017-Jun-16 22:30N 42°43' E 010°03'1317.3
2017-Jun-16 21:47N 42°35' E 010°16'517.7
2017-Jun-16 21:29N 42°32' E 010°22'917.9
2017-Jun-16 20:58N 42°26' E 010°31'817.9
2017-Jun-16 20:30N 42°21' E 010°40'917.8
2017-Jun-16 20:00N 42°15' E 010°50'1317.0
2017-Jun-16 19:15N 42°08' E 011°04'417.4
2017-Jun-16 19:00N 42°08' E 011°10'28 2.0
2017-Jun-16 05:10N 42°06' E 011°47'0 0.1
2017-Jun-16 05:00N 42°06' E 011°47'2 4.0
2017-Jun-16 04:29N 42°06' E 011°44'612.5
2017-Jun-16 03:59N 42°03' E 011°37'713.5
2017-Jun-16 03:27N 42°00' E 011°28'614.1
2017-Jun-16 02:59N 41°58' E 011°20'714.7
2017-Jun-16 02:29N 41°55' E 011°11'714.8
2017-Jun-16 02:00N 41°52' E 011°02'714.9
2017-Jun-16 01:30N 41°50' E 010°52'814.9
2017-Jun-16 01:00N 41°47' E 010°43'815.3
2017-Jun-16 00:30N 41°44' E 010°34'915.4
2017-Jun-15 23:55N 41°40' E 010°23'614.8
2017-Jun-15 23:30N 41°38' E 010°15'714.6
2017-Jun-15 23:00N 41°35' E 010°06'914.7
2017-Jun-15 22:24N 41°31' E 009°55'614.8
2017-Jun-15 21:59N 41°29' E 009°48'715.0
2017-Jun-15 21:30N 41°27' E 009°38'815.6
2017-Jun-15 20:59N 41°24' E 009°29'816.3
2017-Jun-15 20:30N 41°20' E 009°20'816.2
2017-Jun-15 20:00N 41°18' E 009°09'816.7
2017-Jun-15 19:30N 41°21' E 008°59'917.1
2017-Jun-15 18:58N 41°26' E 008°49'917.6
2017-Jun-15 18:28N 41°33' E 008°42'917.3
2017-Jun-15 17:57N 41°42' E 008°38'1015.8
2017-Jun-15 17:20N 41°51' E 008°42'5 0.6
2017-Jun-15 09:17N 41°55' E 008°45'0 0.7
2017-Jun-15 08:55N 41°55' E 008°45'5 9.3
2017-Jun-15 08:22N 41°51' E 008°41'817.8
2017-Jun-15 07:56N 41°47' E 008°32'817.4
2017-Jun-15 07:29N 41°45' E 008°22'817.9
2017-Jun-15 07:00N 41°44' E 008°11'918.3
2017-Jun-15 06:30N 41°43' E 007°58'918.2
2017-Jun-15 05:59N 41°42' E 007°46'918.0
2017-Jun-15 05:30N 41°42' E 007°34'918.0
2017-Jun-15 05:01N 41°41' E 007°22'1119.3
2017-Jun-15 04:27N 41°40' E 007°08'920.3
2017-Jun-15 04:00N 41°39' E 006°56'1020.5
2017-Jun-15 03:31N 41°38' E 006°43'1020.3
2017-Jun-15 03:01N 41°36' E 006°29'1120.7
2017-Jun-15 02:29N 41°35' E 006°15'1120.4
2017-Jun-15 01:58N 41°34' E 006°01'920.1
2017-Jun-15 01:30N 41°33' E 005°48'1020.0
2017-Jun-15 01:00N 41°32' E 005°35'1020.0
2017-Jun-15 00:30N 41°31' E 005°22'1020.0
2017-Jun-14 23:59N 41°30' E 005°08'1020.1
2017-Jun-14 23:28N 41°29' E 004°54'1020.3
2017-Jun-14 22:58N 41°28' E 004°40'1020.3
2017-Jun-14 22:29N 41°27' E 004°28'1119.1
2017-Jun-14 21:55N 41°26' E 004°13'1417.5
2017-Jun-14 21:07N 41°24' E 003°55'217.7
2017-Jun-14 21:00N 41°24' E 003°52'917.8
2017-Jun-14 20:31N 41°23' E 003°40'917.9
2017-Jun-14 20:00N 41°23' E 003°28'917.8
2017-Jun-14 19:30N 41°22' E 003°17'917.7
2017-Jun-14 19:00N 41°21' E 003°05'1017.9
2017-Jun-14 18:27N 41°20' E 002°52'1017.9
2017-Jun-14 17:53N 41°19' E 002°38'717.8
2017-Jun-14 17:30N 41°18' E 002°29'917.8
2017-Jun-14 17:00N 41°16' E 002°18'612.2
2017-Jun-14 16:30N 41°19' E 002°10'3 5.4
2017-Jun-14 15:58N 41°22' E 002°11'0 0.0
2017-Jun-14 15:19N 41°22' E 002°11'0 0.0
2017-Jun-14 14:55N 41°22' E 002°11'0 0.0
2017-Jun-14 13:54N 41°22' E 002°11'0 0.0
2017-Jun-14 11:41N 41°22' E 002°11'0 0.0
2017-Jun-14 11:29N 41°22' E 002°11'0 0.0
2017-Jun-14 08:16N 41°22' E 002°11'0 0.0
2017-Jun-14 07:52N 41°22' E 002°11'0 0.0
2017-Jun-14 07:21N 41°22' E 002°11'0 0.2
2017-Jun-14 06:49N 41°22' E 002°11'1 3.5
2017-Jun-14 06:30N 41°21' E 002°10'4 7.0
2017-Jun-14 05:58N 41°17' E 002°11'917.2
2017-Jun-14 05:28N 41°08' E 002°11'817.8
2017-Jun-14 05:00N 41°00' E 002°11'1118.0
2017-Jun-14 04:22N 40°49' E 002°12'617.8
2017-Jun-14 04:00N 40°42' E 002°12'918.0
2017-Jun-14 03:30N 40°33' E 002°12'918.1
2017-Jun-14 03:00N 40°24' E 002°12'918.2
2017-Jun-14 02:30N 40°15' E 002°13'918.0
2017-Jun-14 02:00N 40°06' E 002°13'917.8
2017-Jun-14 01:30N 39°57' E 002°13'917.9
2017-Jun-14 01:00N 39°48' E 002°13'1018.2
2017-Jun-14 00:29N 39°39' E 002°15'817.4
2017-Jun-14 00:00N 39°31' E 002°19'918.2
2017-Jun-13 23:30N 39°25' E 002°27'815.6
2017-Jun-13 23:00N 39°29' E 002°36'4 8.2
2017-Jun-13 22:30N 39°33' E 002°38'0 0.4
2017-Jun-13 22:00N 39°33' E 002°38'0 0.0
2017-Jun-13 21:30N 39°33' E 002°38'0 0.0
2017-Jun-13 21:00N 39°33' E 002°38'0 0.0
2017-Jun-13 20:29N 39°33' E 002°38'0 0.0
2017-Jun-13 19:59N 39°33' E 002°38'0 0.0
2017-Jun-13 19:29N 39°33' E 002°38'0 0.0
2017-Jun-13 18:59N 39°33' E 002°38'0 0.0
2017-Jun-13 18:28N 39°33' E 002°38'0 0.0
2017-Jun-13 17:58N 39°33' E 002°38'0 0.0
2017-Jun-13 17:28N 39°33' E 002°38'0 0.0
2017-Jun-13 16:58N 39°33' E 002°38'0 0.0
2017-Jun-13 16:28N 39°33' E 002°38'0 0.0
2017-Jun-13 16:00N 39°33' E 002°38'0 0.0
2017-Jun-13 15:30N 39°33' E 002°38'0 0.0
2017-Jun-13 15:00N 39°33' E 002°38'0 0.0
2017-Jun-13 14:00N 39°33' E 002°38'0 0.0
2017-Jun-13 13:29N 39°33' E 002°38'0 0.0
2017-Jun-13 12:59N 39°33' E 002°38'0 0.0
2017-Jun-13 12:29N 39°33' E 002°38'0 0.0
2017-Jun-13 11:59N 39°33' E 002°38'0 0.0
2017-Jun-13 11:28N 39°33' E 002°38'0 0.4
2017-Jun-13 11:00N 39°33' E 002°38'2 3.2
2017-Jun-13 10:30N 39°31' E 002°38'611.9
2017-Jun-13 10:00N 39°26' E 002°34'714.2
2017-Jun-13 09:30N 39°27' E 002°25'815.9
2017-Jun-13 09:00N 39°32' E 002°17'714.7
2017-Jun-13 08:30N 39°39' E 002°19'816.5
2017-Jun-13 08:00N 39°46' E 002°26'817.0
2017-Jun-13 07:30N 39°51' E 002°34'817.1
2017-Jun-13 07:00N 39°57' E 002°42'917.2
2017-Jun-13 06:30N 40°03' E 002°50'917.3
2017-Jun-13 06:00N 40°09' E 002°58'  
Track history (hours):
 
Tides and Currents Weather Stations Pressure Air Temp Water Temp Dewpoint Dewpoint Depression Visibility Wind Speed Wind Dir Waves Ship Positions

MSC Orchestra

Last reported at 2017-Jun-23 05:59 UTC. Time now 2017-Jun-23 17:10 UTC.
Position N 42°06' E 011°47'.

Length 294 m; draft 7.7 m.

Type: Ship. MMSI: 372497000.

Date/timePositionNaut miles runAvg speedWind from/ knotsBaromVisibWave heightAir tempDewpointWater temp
2017-Jun-23 05:59N 42°06' E 011°47'0 0.0
2017-Jun-23 05:29N 42°06' E 011°47'2 1.9
2017-Jun-23 04:34N 42°07' E 011°45'1 8.1
2017-Jun-23 04:28N 42°06' E 011°44'712.6
2017-Jun-23 03:55N 42°03' E 011°36'513.1
2017-Jun-23 03:30N 42°01' E 011°29'713.4
2017-Jun-23 03:00N 41°58' E 011°21'714.1
2017-Jun-23 02:30N 41°55' E 011°12'714.1
2017-Jun-23 02:00N 41°53' E 011°03'714.1
2017-Jun-23 01:30N 41°50' E 010°54'714.5
2017-Jun-23 01:00N 41°47' E 010°45'714.8
2017-Jun-23 00:30N 41°45' E 010°36'1214.9
2017-Jun-22 23:43N 41°40' E 010°22'315.0
2017-Jun-22 23:30N 41°39' E 010°18'1115.0
2017-Jun-22 22:46N 41°35' E 010°04'414.7
2017-Jun-22 22:30N 41°33' E 009°59'814.7
2017-Jun-22 21:59N 41°30' E 009°50'714.9
2017-Jun-22 21:30N 41°28' E 009°41'714.6
2017-Jun-22 21:00N 41°25' E 009°32'915.8
2017-Jun-22 20:27N 41°21' E 009°21'2115.0
2017-Jun-22 19:02N 41°24' E 008°53'117.3
2017-Jun-22 19:00N 41°24' E 008°53'54 4.3
2017-Jun-22 06:19N 41°42' E 007°44'1020.3
2017-Jun-22 05:50N 41°41' E 007°31'2220.4
2017-Jun-22 04:45N 41°39' E 007°02'520.5
2017-Jun-22 04:30N 41°38' E 006°55'1020.5
2017-Jun-22 04:00N 41°37' E 006°42'1120.4
2017-Jun-22 03:29N 41°36' E 006°27'1020.4
2017-Jun-22 03:00N 41°35' E 006°14'1019.7
2017-Jun-22 02:30N 41°34' E 006°01'918.4
2017-Jun-22 02:00N 41°34' E 005°49'1118.3
2017-Jun-22 01:26N 41°32' E 005°35'818.1
2017-Jun-22 00:59N 41°31' E 005°24'1918.2
2017-Jun-21 23:57N 41°29' E 004°59'3018.2
2017-Jun-21 22:18N 41°26' E 004°19'2618.1
2017-Jun-21 20:53N 41°24' E 003°45'718.2
2017-Jun-21 20:29N 41°23' E 003°36'917.9
2017-Jun-21 20:00N 41°22' E 003°24'917.7
2017-Jun-21 19:30N 41°21' E 003°13'1417.6
2017-Jun-21 18:43N 41°20' E 002°54'518.1
2017-Jun-21 18:26N 41°19' E 002°48'818.2
2017-Jun-21 18:00N 41°18' E 002°37'918.0
2017-Jun-21 17:30N 41°16' E 002°25'918.0
2017-Jun-21 17:00N 41°16' E 002°14'5 9.9
2017-Jun-21 16:30N 41°21' E 002°10'1 1.2
2017-Jun-21 15:25N 41°22' E 002°11'0 0.0
2017-Jun-21 13:42N 41°22' E 002°11'0 0.0
2017-Jun-21 13:30N 41°22' E 002°11'0 0.0
2017-Jun-21 12:18N 41°22' E 002°11'0 0.0
2017-Jun-21 12:00N 41°22' E 002°11'0 0.0
2017-Jun-21 11:29N 41°22' E 002°11'0 0.0
2017-Jun-21 07:46N 41°22' E 002°11'0 0.0
2017-Jun-21 07:28N 41°22' E 002°11'0 0.3
2017-Jun-21 06:48N 41°22' E 002°11'3 4.3
2017-Jun-21 06:13N 41°19' E 002°10'1915.7
2017-Jun-21 04:59N 40°60' E 002°11'918.2
2017-Jun-21 04:29N 40°51' E 002°12'918.1
2017-Jun-21 03:59N 40°42' E 002°12'917.9
2017-Jun-21 03:28N 40°32' E 002°12'917.9
2017-Jun-21 03:00N 40°24' E 002°12'917.8
2017-Jun-21 02:30N 40°15' E 002°13'918.0
2017-Jun-21 02:00N 40°06' E 002°13'918.2
2017-Jun-21 01:30N 39°57' E 002°13'1018.5
2017-Jun-21 00:59N 39°48' E 002°14'919.0
2017-Jun-21 00:30N 39°38' E 002°15'917.8
2017-Jun-20 23:59N 39°30' E 002°20'917.9
2017-Jun-20 23:30N 39°26' E 002°30'816.4
2017-Jun-20 23:00N 39°31' E 002°38'2 4.6
2017-Jun-20 22:30N 39°33' E 002°38'0 0.2
2017-Jun-20 21:58N 39°33' E 002°38'0 0.0
2017-Jun-20 21:28N 39°33' E 002°38'0 0.0
2017-Jun-20 21:00N 39°33' E 002°38'0 0.0
2017-Jun-20 20:30N 39°33' E 002°38'0 0.0
2017-Jun-20 20:00N 39°33' E 002°38'0 0.0
2017-Jun-20 19:30N 39°33' E 002°38'0 0.0
2017-Jun-20 19:00N 39°33' E 002°38'0 0.0
2017-Jun-20 18:29N 39°33' E 002°38'0 0.0
2017-Jun-20 17:59N 39°33' E 002°38'0 0.0
2017-Jun-20 17:29N 39°33' E 002°38'0 0.0
2017-Jun-20 16:53N 39°33' E 002°38'0 0.0
2017-Jun-20 16:25N 39°33' E 002°38'0 0.0
2017-Jun-20 15:58N 39°33' E 002°38'0 0.0
2017-Jun-20 15:28N 39°33' E 002°38'0 0.0
2017-Jun-20 14:58N 39°33' E 002°38'0 0.0
2017-Jun-20 13:57N 39°33' E 002°38'0 0.0
2017-Jun-20 13:27N 39°33' E 002°38'0 0.0
2017-Jun-20 13:00N 39°33' E 002°38'0 0.0
2017-Jun-20 12:30N 39°33' E 002°38'0 0.0
2017-Jun-20 12:00N 39°33' E 002°38'0 0.0
2017-Jun-20 11:29N 39°33' E 002°38'0 0.0
2017-Jun-20 10:57N 39°33' E 002°38'1 2.6
2017-Jun-20 10:30N 39°32' E 002°39'611.1
2017-Jun-20 10:00N 39°28' E 002°35'611.8
2017-Jun-20 09:30N 39°26' E 002°28'714.1
2017-Jun-20 09:00N 39°30' E 002°20'713.5
2017-Jun-20 08:28N 39°37' E 002°16'1016.2
2017-Jun-20 07:53N 39°44' E 002°24'616.0
2017-Jun-20 07:30N 39°48' E 002°30'816.4
2017-Jun-20 07:00N 39°53' E 002°38'816.5
2017-Jun-20 06:30N 39°59' E 002°46'816.5
2017-Jun-20 06:00N 40°05' E 002°53'816.9
2017-Jun-20 05:30N 40°11' E 003°01'917.8
2017-Jun-20 05:00N 40°17' E 003°09'917.6
2017-Jun-20 04:29N 40°24' E 003°18'3317.4
2017-Jun-20 02:37N 40°47' E 003°48'3617.6
2017-Jun-20 00:35N 41°12' E 004°22'317.7
2017-Jun-20 00:25N 41°14' E 004°25'3117.3
2017-Jun-19 22:38N 41°35' E 004°55'2417.4
2017-Jun-19 21:14N 41°53' E 005°18'1017.5
2017-Jun-19 20:38N 41°60' E 005°28'317.4
2017-Jun-19 20:29N 42°02' E 005°30'1017.6
2017-Jun-19 19:55N 42°09' E 005°40'1717.6
2017-Jun-19 18:57N 42°20' E 005°56'817.4
2017-Jun-19 18:30N 42°26' E 006°04'917.5
2017-Jun-19 18:00N 42°32' E 006°12'917.6
2017-Jun-19 17:30N 42°38' E 006°21'917.9
2017-Jun-19 17:00N 42°44' E 006°30'918.5
2017-Jun-19 16:30N 42°51' E 006°39'918.8
2017-Jun-19 16:00N 42°57' E 006°48'918.8
2017-Jun-19 15:30N 43°06' E 006°52'918.7
2017-Jun-19 15:00N 43°15' E 006°55'1716.9
2017-Jun-19 14:00N 43°32' E 007°01'0 0.6
2017-Jun-19 13:22N 43°32' E 007°01'0 0.0
2017-Jun-19 12:58N 43°32' E 007°01'0 0.0
2017-Jun-19 12:25N 43°32' E 007°01'0 0.0
2017-Jun-19 12:00N 43°32' E 007°01'0 0.0
2017-Jun-19 11:30N 43°32' E 007°01'0 0.0
2017-Jun-19 11:00N 43°32' E 007°01'0 0.0
2017-Jun-19 10:27N 43°32' E 007°01'0 0.0
2017-Jun-19 10:00N 43°32' E 007°01'0 0.0
2017-Jun-19 09:29N 43°32' E 007°01'0 0.0
2017-Jun-19 08:58N 43°32' E 007°01'0 0.0
2017-Jun-19 08:27N 43°32' E 007°01'0 0.0
2017-Jun-19 08:00N 43°32' E 007°01'0 0.0
2017-Jun-19 07:30N 43°32' E 007°01'0 0.1
2017-Jun-19 07:00N 43°32' E 007°01'0 0.0
2017-Jun-19 06:30N 43°32' E 007°01'0 0.0
2017-Jun-19 06:00N 43°32' E 007°01'0 0.0
2017-Jun-19 05:30N 43°32' E 007°01'0 0.0
2017-Jun-19 05:00N 43°32' E 007°01'2 3.2
2017-Jun-19 04:30N 43°31' E 007°00'4 8.2
2017-Jun-19 04:00N 43°27' E 007°04'4 8.6
2017-Jun-19 03:30N 43°28' E 007°09'5 8.9
2017-Jun-19 03:00N 43°29' E 007°15'4 8.6
2017-Jun-19 02:30N 43°30' E 007°21'4 8.4
2017-Jun-19 02:00N 43°31' E 007°27'4 8.4
2017-Jun-19 01:30N 43°32' E 007°33'4 8.5
2017-Jun-19 01:00N 43°33' E 007°38'4 8.5
2017-Jun-19 00:30N 43°34' E 007°44'4 8.4
2017-Jun-19 00:00N 43°35' E 007°49'5 8.8
2017-Jun-18 23:28N 43°36' E 007°56'4 9.1
2017-Jun-18 23:00N 43°37' E 008°01'5 9.0
2017-Jun-18 22:30N 43°39' E 008°07'5 9.0
2017-Jun-18 22:00N 43°41' E 008°13'4 9.0
2017-Jun-18 21:30N 43°43' E 008°18'5 9.1
2017-Jun-18 21:00N 43°47' E 008°22'5 9.2
2017-Jun-18 20:30N 43°51' E 008°26'5 9.1
2017-Jun-18 20:00N 43°54' E 008°30'5 9.4
2017-Jun-18 19:30N 43°58' E 008°34'5 9.3
2017-Jun-18 19:00N 44°01' E 008°38'5 9.1
2017-Jun-18 18:30N 44°05' E 008°42'5 9.7
2017-Jun-18 18:00N 44°09' E 008°46'5 9.6
2017-Jun-18 17:30N 44°13' E 008°50'5 9.5
2017-Jun-18 17:00N 44°16' E 008°55'5 9.5
2017-Jun-18 16:30N 44°20' E 008°57'4 8.5
2017-Jun-18 16:00N 44°24' E 008°55'0 0.5
2017-Jun-18 15:27N 44°25' E 008°55'0 0.0
2017-Jun-18 14:48N 44°25' E 008°55'0 0.0
2017-Jun-18 14:00N 44°25' E 008°55'0 0.0
2017-Jun-18 13:29N 44°25' E 008°55'0 0.0
2017-Jun-18 12:59N 44°25' E 008°55'0 0.0
2017-Jun-18 12:29N 44°25' E 008°55'0 0.0
2017-Jun-18 11:59N 44°25' E 008°55'0 0.0
2017-Jun-18 11:28N 44°25' E 008°55'0 0.0
2017-Jun-18 10:58N 44°25' E 008°55'0 0.0
2017-Jun-18 10:25N 44°25' E 008°55'0 0.0
2017-Jun-18 09:52N 44°25' E 008°55'0 0.0
2017-Jun-18 09:28N 44°25' E 008°55'0 0.0
2017-Jun-18 09:00N 44°25' E 008°55'0 0.0
2017-Jun-18 08:27N 44°25' E 008°55'0 0.0
2017-Jun-18 07:54N 44°25' E 008°55'0 0.0
2017-Jun-18 07:30N 44°25' E 008°55'0 0.0
2017-Jun-18 06:57N 44°25' E 008°55'0 0.0
2017-Jun-18 06:29N 44°25' E 008°55'0 0.0
2017-Jun-18 05:56N 44°25' E 008°55'0 0.0
2017-Jun-18 05:26N 44°25' E 008°55'0 0.8
2017-Jun-18 05:00N 44°24' E 008°55'1 3.0
2017-Jun-18 04:30N 44°23' E 008°57'3 7.0
2017-Jun-18 04:00N 44°20' E 008°59'5 9.1
2017-Jun-18 03:30N 44°16' E 008°59'4 7.5
2017-Jun-18 03:00N 44°12' E 008°60'4 7.6
2017-Jun-18 02:30N 44°08' E 008°60'3 6.9
2017-Jun-18 02:00N 44°05' E 009°00'4 7.2
2017-Jun-18 01:30N 44°01' E 009°01'3 6.9
2017-Jun-18 01:00N 43°58' E 009°01'3 6.8
2017-Jun-18 00:30N 43°54' E 009°01'3 6.7
2017-Jun-18 00:00N 43°51' E 009°01'3 6.7
2017-Jun-17 23:30N 43°48' E 009°02'3 6.5
2017-Jun-17 23:00N 43°46' E 009°06'3 6.9
2017-Jun-17 22:30N 43°47' E 009°11'4 7.1
2017-Jun-17 22:00N 43°49' E 009°15'4 7.0
2017-Jun-17 21:30N 43°50' E 009°20'3 6.9
2017-Jun-17 21:00N 43°51' E 009°24'3 6.8
2017-Jun-17 20:30N 43°53' E 009°29'4 7.0
2017-Jun-17 20:00N 43°54' E 009°33'4 7.1
2017-Jun-17 19:30N 43°55' E 009°38'4 7.2
2017-Jun-17 19:00N 43°57' E 009°42'4 7.3
2017-Jun-17 18:30N 43°58' E 009°47'4 7.3
2017-Jun-17 18:00N 43°60' E 009°52'4 8.3
2017-Jun-17 17:30N 44°04' E 009°51'3 4.7
2017-Jun-17 16:58N 44°06' E 009°50'0 0.0
2017-Jun-17 16:28N 44°06' E 009°50'0 0.0
2017-Jun-17 15:58N 44°06' E 009°50'0 0.0
2017-Jun-17 15:24N 44°06' E 009°50'0 0.0
2017-Jun-17 15:00N 44°06' E 009°50'0 0.0
2017-Jun-17 14:30N 44°06' E 009°50'0 0.0
2017-Jun-17 13:30N 44°06' E 009°50'0 0.0
2017-Jun-17 12:59N 44°06' E 009°50'0 0.0
2017-Jun-17 12:29N 44°06' E 009°50'0 0.0
2017-Jun-17 11:56N 44°06' E 009°50'0 0.0
2017-Jun-17 11:26N 44°06' E 009°50'0 0.0
2017-Jun-17 10:59N 44°06' E 009°50'0 0.0
2017-Jun-17 10:28N 44°06' E 009°50'0 0.0
2017-Jun-17 09:58N 44°06' E 009°50'0 0.0
2017-Jun-17 09:25N 44°06' E 009°50'0 0.0
2017-Jun-17 08:58N 44°06' E 009°50'0 0.0
2017-Jun-17 08:31N 44°06' E 009°50'0 0.0
2017-Jun-17 08:00N 44°06' E 009°50'0 0.0
2017-Jun-17 07:30N 44°06' E 009°50'0 0.0
2017-Jun-17 07:00N 44°06' E 009°50'0 0.0
2017-Jun-17 06:30N 44°06' E 009°50'0 0.0
2017-Jun-17 05:59N 44°06' E 009°50'0 0.0
2017-Jun-17 05:26N 44°06' E 009°50'0 0.0
2017-Jun-17 04:59N 44°06' E 009°50'0 1.0
2017-Jun-17 04:31N 44°06' E 009°51'3 6.4
2017-Jun-17 04:00N 44°03' E 009°52'612.0
2017-Jun-17 03:30N 43°58' E 009°57'714.7
2017-Jun-17 03:00N 43°52' E 009°52'714.5
2017-Jun-17 02:30N 43°45' E 009°47'815.3
2017-Jun-17 02:00N 43°39' E 009°42'816.1
2017-Jun-17 01:30N 43°31' E 009°39'917.4
2017-Jun-17 01:00N 43°23' E 009°45'917.2
2017-Jun-17 00:30N 43°16' E 009°51'917.2
2017-Jun-17 00:00N 43°08' E 009°57'917.2
2017-Jun-16 23:30N 43°00' E 010°01'917.7
2017-Jun-16 23:00N 42°52' E 010°01'917.4
2017-Jun-16 22:30N 42°43' E 010°03'1317.3
2017-Jun-16 21:47N 42°35' E 010°16'517.7
2017-Jun-16 21:29N 42°32' E 010°22'917.9
2017-Jun-16 20:58N 42°26' E 010°31'817.9
2017-Jun-16 20:30N 42°21' E 010°40'917.8
2017-Jun-16 20:00N 42°15' E 010°50'1317.0
2017-Jun-16 19:15N 42°08' E 011°04'417.4
2017-Jun-16 19:00N 42°08' E 011°10'28 2.0
2017-Jun-16 05:10N 42°06' E 011°47'0 0.1
2017-Jun-16 05:00N 42°06' E 011°47'2 4.0
2017-Jun-16 04:29N 42°06' E 011°44'612.5
2017-Jun-16 03:59N 42°03' E 011°37'713.5
2017-Jun-16 03:27N 42°00' E 011°28'614.1
2017-Jun-16 02:59N 41°58' E 011°20'714.7
2017-Jun-16 02:29N 41°55' E 011°11'714.8
2017-Jun-16 02:00N 41°52' E 011°02'714.9
2017-Jun-16 01:30N 41°50' E 010°52'814.9
2017-Jun-16 01:00N 41°47' E 010°43'815.3
2017-Jun-16 00:30N 41°44' E 010°34'915.4
2017-Jun-15 23:55N 41°40' E 010°23'614.8
2017-Jun-15 23:30N 41°38' E 010°15'714.6
2017-Jun-15 23:00N 41°35' E 010°06'914.7
2017-Jun-15 22:24N 41°31' E 009°55'614.8
2017-Jun-15 21:59N 41°29' E 009°48'715.0
2017-Jun-15 21:30N 41°27' E 009°38'815.6
2017-Jun-15 20:59N 41°24' E 009°29'816.3
2017-Jun-15 20:30N 41°20' E 009°20'816.2
2017-Jun-15 20:00N 41°18' E 009°09'816.7
2017-Jun-15 19:30N 41°21' E 008°59'917.1
2017-Jun-15 18:58N 41°26' E 008°49'917.6
2017-Jun-15 18:28N 41°33' E 008°42'917.3
2017-Jun-15 17:57N 41°42' E 008°38'1015.8
2017-Jun-15 17:20N 41°51' E 008°42'5 0.6
2017-Jun-15 09:17N 41°55' E 008°45'0 0.7
2017-Jun-15 08:55N 41°55' E 008°45'5 9.3
2017-Jun-15 08:22N 41°51' E 008°41'817.8
2017-Jun-15 07:56N 41°47' E 008°32'817.4
2017-Jun-15 07:29N 41°45' E 008°22'817.9
2017-Jun-15 07:00N 41°44' E 008°11'918.3
2017-Jun-15 06:30N 41°43' E 007°58'918.2
2017-Jun-15 05:59N 41°42' E 007°46'918.0
2017-Jun-15 05:30N 41°42' E 007°34'918.0
2017-Jun-15 05:01N 41°41' E 007°22'1119.3
2017-Jun-15 04:27N 41°40' E 007°08'920.3
2017-Jun-15 04:00N 41°39' E 006°56'1020.5
2017-Jun-15 03:31N 41°38' E 006°43'1020.3
2017-Jun-15 03:01N 41°36' E 006°29'1120.7
2017-Jun-15 02:29N 41°35' E 006°15'1120.4
2017-Jun-15 01:58N 41°34' E 006°01'920.1
2017-Jun-15 01:30N 41°33' E 005°48'1020.0
2017-Jun-15 01:00N 41°32' E 005°35'1020.0
2017-Jun-15 00:30N 41°31' E 005°22'1020.0
2017-Jun-14 23:59N 41°30' E 005°08'1020.1
2017-Jun-14 23:28N 41°29' E 004°54'1020.3
2017-Jun-14 22:58N 41°28' E 004°40'1020.3
2017-Jun-14 22:29N 41°27' E 004°28'1119.1
2017-Jun-14 21:55N 41°26' E 004°13'1417.5
2017-Jun-14 21:07N 41°24' E 003°55'217.7
2017-Jun-14 21:00N 41°24' E 003°52'917.8
2017-Jun-14 20:31N 41°23' E 003°40'917.9
2017-Jun-14 20:00N 41°23' E 003°28'917.8
2017-Jun-14 19:30N 41°22' E 003°17'917.7
2017-Jun-14 19:00N 41°21' E 003°05'1017.9
2017-Jun-14 18:27N 41°20' E 002°52'1017.9
2017-Jun-14 17:53N 41°19' E 002°38'717.8
2017-Jun-14 17:30N 41°18' E 002°29'917.8
2017-Jun-14 17:00N 41°16' E 002°18'612.2
2017-Jun-14 16:30N 41°19' E 002°10'3 5.4
2017-Jun-14 15:58N 41°22' E 002°11'0 0.0
2017-Jun-14 15:19N 41°22' E 002°11'0 0.0
2017-Jun-14 14:55N 41°22' E 002°11'0 0.0
2017-Jun-14 13:54N 41°22' E 002°11'0 0.0
2017-Jun-14 11:41N 41°22' E 002°11'0 0.0
2017-Jun-14 11:29N 41°22' E 002°11'0 0.0
2017-Jun-14 08:16N 41°22' E 002°11'0 0.0
2017-Jun-14 07:52N 41°22' E 002°11'0 0.0
2017-Jun-14 07:21N 41°22' E 002°11'0 0.2
2017-Jun-14 06:49N 41°22' E 002°11'1 3.5
2017-Jun-14 06:30N 41°21' E 002°10'4 7.0
2017-Jun-14 05:58N 41°17' E 002°11'917.2
2017-Jun-14 05:28N 41°08' E 002°11'817.8
2017-Jun-14 05:00N 41°00' E 002°11'1118.0
2017-Jun-14 04:22N 40°49' E 002°12'617.8
2017-Jun-14 04:00N 40°42' E 002°12'918.0
2017-Jun-14 03:30N 40°33' E 002°12'918.1
2017-Jun-14 03:00N 40°24' E 002°12'918.2
2017-Jun-14 02:30N 40°15' E 002°13'918.0
2017-Jun-14 02:00N 40°06' E 002°13'917.8
2017-Jun-14 01:30N 39°57' E 002°13'917.9
2017-Jun-14 01:00N 39°48' E 002°13'1018.2
2017-Jun-14 00:29N 39°39' E 002°15'817.4
2017-Jun-14 00:00N 39°31' E 002°19'918.2
2017-Jun-13 23:30N 39°25' E 002°27'815.6
2017-Jun-13 23:00N 39°29' E 002°36'4 8.2
2017-Jun-13 22:30N 39°33' E 002°38'0 0.4
2017-Jun-13 22:00N 39°33' E 002°38'0 0.0
2017-Jun-13 21:30N 39°33' E 002°38'0 0.0
2017-Jun-13 21:00N 39°33' E 002°38'0 0.0
2017-Jun-13 20:29N 39°33' E 002°38'0 0.0
2017-Jun-13 19:59N 39°33' E 002°38'0 0.0
2017-Jun-13 19:29N 39°33' E 002°38'0 0.0
2017-Jun-13 18:59N 39°33' E 002°38'0 0.0
2017-Jun-13 18:28N 39°33' E 002°38'0 0.0
2017-Jun-13 17:58N 39°33' E 002°38'0 0.0
2017-Jun-13 17:28N 39°33' E 002°38'0 0.0
2017-Jun-13 16:58N 39°33' E 002°38'0 0.0
2017-Jun-13 16:28N 39°33' E 002°38'0 0.0
2017-Jun-13 16:00N 39°33' E 002°38'0 0.0
2017-Jun-13 15:30N 39°33' E 002°38'0 0.0
2017-Jun-13 15:00N 39°33' E 002°38'0 0.0
2017-Jun-13 14:00N 39°33' E 002°38'0 0.0
2017-Jun-13 13:29N 39°33' E 002°38'0 0.0
2017-Jun-13 12:59N 39°33' E 002°38'0 0.0
2017-Jun-13 12:29N 39°33' E 002°38'0 0.0
2017-Jun-13 11:59N 39°33' E 002°38'0 0.0
2017-Jun-13 11:28N 39°33' E 002°38'0 0.4
2017-Jun-13 11:00N 39°33' E 002°38'2 3.2
2017-Jun-13 10:30N 39°31' E 002°38'611.9
2017-Jun-13 10:00N 39°26' E 002°34'714.2
2017-Jun-13 09:30N 39°27' E 002°25'815.9
2017-Jun-13 09:00N 39°32' E 002°17'714.7
2017-Jun-13 08:30N 39°39' E 002°19'816.5
2017-Jun-13 08:00N 39°46' E 002°26'817.0
2017-Jun-13 07:30N 39°51' E 002°34'817.1
2017-Jun-13 07:00N 39°57' E 002°42'917.2
2017-Jun-13 06:30N 40°03' E 002°50'917.3
2017-Jun-13 06:00N 40°09' E 002°58'  

Dump ship's entire track history